createdAt,value
2024-03-12T00:03:49.829Z,7.88
2024-03-12T00:08:49.827Z,7.87
2024-03-12T00:13:49.600Z,7.88
2024-03-12T00:18:49.845Z,7.91
2024-03-12T00:23:50.089Z,7.84
2024-03-12T00:28:47.670Z,7.72
2024-03-12T00:33:47.214Z,7.62
2024-03-12T00:38:47.160Z,7.61
2024-03-12T00:43:47.398Z,7.62
2024-03-12T00:48:47.076Z,7.69
2024-03-12T00:53:47.158Z,7.73
2024-03-12T00:58:47.564Z,7.73
2024-03-12T01:03:47.895Z,7.72
2024-03-12T01:08:48.867Z,7.7
2024-03-12T01:13:45.150Z,7.67
2024-03-12T01:18:44.836Z,7.6
2024-03-12T01:23:44.710Z,7.51
2024-03-12T01:28:45.172Z,7.41
2024-03-12T01:33:44.911Z,7.31
2024-03-12T01:38:45.253Z,7.23
2024-03-12T01:43:44.617Z,7.15
2024-03-12T01:48:44.757Z,7.11
2024-03-12T01:53:43.241Z,7.06
2024-03-12T01:58:43.750Z,7
2024-03-12T02:05:06.562Z,7
2024-03-12T02:10:06.263Z,7.03
2024-03-12T02:15:06.738Z,7.01
2024-03-12T02:20:06.312Z,6.99
2024-03-12T02:25:06.270Z,7
2024-03-12T02:35:05.254Z,7.11
2024-03-12T02:40:05.019Z,7.23
2024-03-12T02:45:05.113Z,7.28
2024-03-12T02:50:04.544Z,7.3
2024-03-12T02:55:04.711Z,7.31
2024-03-12T02:59:27.247Z,7.34
2024-03-12T03:04:27.095Z,7.34
2024-03-12T03:09:27.244Z,7.36
2024-03-12T03:14:24.653Z,7.41
2024-03-12T03:19:24.362Z,7.43
2024-03-12T03:24:24.061Z,7.44
2024-03-12T03:29:24.503Z,7.46
2024-03-12T03:34:24.694Z,7.49
2024-03-12T03:39:25.306Z,7.51
2024-03-12T03:44:25.064Z,7.49
2024-03-12T03:49:25.172Z,7.53
2024-03-12T03:54:22.574Z,7.58
2024-03-12T03:59:06.174Z,7.58
2024-03-12T04:04:06.069Z,7.55
2024-03-12T04:09:06.481Z,7.54
2024-03-12T04:14:06.197Z,7.49
2024-03-12T04:19:06.565Z,7.44
2024-03-12T04:24:05.714Z,7.36
2024-03-12T04:29:05.613Z,7.28
2024-03-12T04:34:06.575Z,7.25
2024-03-12T04:39:02.662Z,7.19
2024-03-12T04:44:02.351Z,7.16
2024-03-12T04:49:02.343Z,7.19
2024-03-12T04:54:02.884Z,7.21
2024-03-12T04:58:47.048Z,7.21
2024-03-12T05:03:47.487Z,7.18
2024-03-12T05:08:47.185Z,7.13
2024-03-12T05:13:48.972Z,7.04
2024-03-12T05:18:45.205Z,6.96
2024-03-12T05:23:44.833Z,6.9
2024-03-12T05:28:44.801Z,6.88
2024-03-12T05:33:44.043Z,6.88
2024-03-12T05:38:43.959Z,6.91
2024-03-12T05:43:44.228Z,6.94
2024-03-12T05:48:43.700Z,6.95
2024-03-12T05:53:43.723Z,6.98
2024-03-12T05:58:42.225Z,7
2024-03-12T06:03:52.275Z,7.03
2024-03-12T06:08:52.131Z,7.07
2024-03-12T06:13:52.451Z,7.1
2024-03-12T06:18:52.482Z,7.12
2024-03-12T06:23:42.105Z,7.14
2024-03-12T06:28:53.041Z,7.21
2024-03-12T06:33:51.448Z,7.18
2024-03-12T06:38:51.718Z,7.18
2024-03-12T06:43:51.587Z,7.21
2024-03-12T06:48:51.971Z,7.21
2024-03-12T06:53:52.580Z,7.26
2024-03-12T06:58:42.790Z,7.32
2024-03-12T07:05:04.382Z,7.35
2024-03-12T07:10:04.037Z,7.35
2024-03-12T07:15:03.993Z,7.37
2024-03-12T07:20:04.280Z,7.35
2024-03-12T07:25:04.210Z,7.37
2024-03-12T07:30:04.388Z,7.38
2024-03-12T07:35:03.945Z,7.35
2024-03-12T07:40:03.994Z,7.37
2024-03-12T07:45:02.671Z,7.34
2024-03-12T07:50:01.857Z,7.38
2024-03-12T07:55:01.677Z,7.43
2024-03-12T07:59:22.987Z,7.43
2024-03-12T08:04:22.604Z,7.49
2024-03-12T08:09:22.579Z,7.59
2024-03-12T08:14:22.925Z,7.73
2024-03-12T08:19:22.635Z,7.8
2024-03-12T08:24:22.756Z,7.84
2024-03-12T08:29:20.279Z,7.91
2024-03-12T08:34:19.978Z,7.95
2024-03-12T08:39:20.198Z,8.08
2024-03-12T08:44:19.720Z,8.1
2024-03-12T08:49:19.482Z,8.3
2024-03-12T08:54:19.876Z,8.57
2024-03-12T08:59:06.828Z,8.85
2024-03-12T09:04:07.036Z,8.92
2024-03-12T09:09:04.438Z,8.85
2024-03-12T09:14:03.996Z,8.71
2024-03-12T09:19:03.950Z,8.83
2024-03-12T09:24:04.174Z,8.78
2024-03-12T09:29:03.860Z,8.71
2024-03-12T09:34:03.916Z,8.63
2024-03-12T09:39:04.300Z,8.56
2024-03-12T09:44:06.680Z,8.56
2024-03-12T09:49:05.109Z,8.47
2024-03-12T09:54:01.244Z,8.41
2024-03-12T09:58:44.897Z,8.33
2024-03-12T10:03:44.866Z,8.27
2024-03-12T10:08:44.394Z,8.21
2024-03-12T10:13:44.496Z,8.21
2024-03-12T10:18:44.745Z,8.18
2024-03-12T10:23:44.495Z,8.22
2024-03-12T10:28:45.744Z,8.09
2024-03-12T10:33:42.239Z,8.02
2024-03-12T10:38:52.426Z,8.1
2024-03-12T10:43:52.405Z,8.08
2024-03-12T10:48:42.284Z,8.18
2024-03-12T10:53:53.040Z,8.14
2024-03-12T10:58:42.824Z,8.2
2024-03-12T11:03:42.694Z,8.25
2024-03-12T11:08:51.823Z,8.21
2024-03-12T11:13:51.925Z,8.22
2024-03-12T11:18:51.876Z,8.28
2024-03-12T11:23:52.088Z,8.18
2024-03-12T11:28:52.104Z,8.13
2024-03-12T11:33:53.096Z,8.1
2024-03-12T11:38:53.678Z,8.18
2024-03-12T11:43:49.492Z,8.22
2024-03-12T11:48:50.318Z,8.18
2024-03-12T11:53:50.624Z,8.26
2024-03-12T11:58:50.696Z,8.41
2024-03-12T12:03:51.328Z,8.46
2024-03-12T12:08:53.923Z,8.47
2024-03-12T12:13:48.191Z,8.49
2024-03-12T12:18:48.762Z,8.63
2024-03-12T12:23:48.840Z,8.85
2024-03-12T12:28:49.635Z,8.81
2024-03-12T12:33:49.923Z,9.02
2024-03-12T12:38:52.118Z,9.12
2024-03-12T12:43:48.215Z,9.18
2024-03-12T12:48:48.731Z,9.27
2024-03-12T12:53:49.355Z,9.12
2024-03-12T12:58:49.995Z,9.14
2024-03-12T13:03:50.330Z,9.29
2024-03-12T13:08:51.212Z,9.41
2024-03-12T13:13:49.457Z,9.45
2024-03-12T13:18:49.648Z,9.46
2024-03-12T13:23:49.767Z,9.45
2024-03-12T13:28:50.483Z,9.37
2024-03-12T13:33:50.791Z,9.49
2024-03-12T13:38:51.617Z,9.62
2024-03-12T13:43:49.972Z,9.67
2024-03-12T13:48:50.174Z,9.47
2024-03-12T13:53:49.822Z,9.39
2024-03-12T13:58:50.463Z,9.26
2024-03-12T14:03:50.139Z,9.33
2024-03-12T14:08:50.513Z,9.35
2024-03-12T14:13:51.612Z,9.29
2024-03-12T14:18:47.487Z,9.21
2024-03-12T14:23:47.989Z,9.22
2024-03-12T14:28:48.035Z,9.28
2024-03-12T14:33:48.802Z,9.22
2024-03-12T14:38:50.131Z,9.22
2024-03-12T14:43:49.069Z,9.34
2024-03-12T14:48:47.524Z,9.37
2024-03-12T14:53:47.662Z,9.35
2024-03-12T14:58:47.403Z,9.25
2024-03-12T15:05:10.890Z,9.26
2024-03-12T15:10:10.389Z,9.26
2024-03-12T15:15:10.276Z,9.29
2024-03-12T15:20:08.801Z,9.33
2024-03-12T15:25:09.149Z,9.3
2024-03-12T15:30:08.784Z,9.26
2024-03-12T15:35:08.778Z,9.02
2024-03-12T15:40:08.225Z,8.82
2024-03-12T15:45:07.993Z,8.7
2024-03-12T15:50:08.225Z,8.68
2024-03-12T15:55:07.978Z,8.66
2024-03-12T15:59:31.219Z,8.6
2024-03-12T16:04:28.809Z,8.56
2024-03-12T16:09:28.594Z,8.55
2024-03-12T16:14:28.355Z,8.47
2024-03-12T16:19:28.896Z,8.46
2024-03-12T16:24:30.286Z,8.47
2024-03-12T16:29:28.867Z,8.45
2024-03-12T16:34:29.186Z,8.34
2024-03-12T16:39:29.781Z,8.27
2024-03-12T16:44:27.185Z,8.22
2024-03-12T16:49:26.556Z,8.14
2024-03-12T16:54:26.353Z,8.12
2024-03-12T16:59:09.687Z,8.1
2024-03-12T17:04:09.348Z,8.03
2024-03-12T17:09:09.367Z,7.99
2024-03-12T17:19:09.794Z,8.02
2024-03-12T17:24:10.922Z,8.05
2024-03-12T17:29:08.104Z,8.1
2024-03-12T17:34:07.333Z,8.07
2024-03-12T17:39:07.092Z,7.92
2024-03-12T17:44:07.437Z,7.79
2024-03-12T17:49:07.023Z,7.72
2024-03-12T17:54:07.214Z,7.64
2024-03-12T17:58:49.933Z,7.6
2024-03-12T18:03:50.042Z,7.55
2024-03-12T18:08:48.525Z,7.52
2024-03-12T18:13:47.841Z,7.44
2024-03-12T18:18:47.981Z,7.41
2024-03-12T18:23:47.387Z,7.38
2024-03-12T18:28:47.170Z,7.37
2024-03-12T18:33:47.385Z,7.39
2024-03-12T18:38:47.219Z,7.34
2024-03-12T18:43:47.272Z,7.33
2024-03-12T18:48:45.957Z,7.33
2024-03-12T18:53:45.254Z,7.34
2024-03-12T18:58:45.120Z,7.35
2024-03-12T19:03:45.314Z,7.35
2024-03-12T19:08:44.750Z,7.31
2024-03-12T19:13:44.680Z,7.29
2024-03-12T19:18:45.105Z,7.29
2024-03-12T19:23:44.799Z,7.29
2024-03-12T19:28:44.990Z,7.26
2024-03-12T19:33:42.338Z,7.24
2024-03-12T19:38:52.430Z,7.21
2024-03-12T19:43:52.193Z,7.17
2024-03-12T19:48:52.604Z,7.15
2024-03-12T19:53:52.734Z,7.12
2024-03-12T19:58:52.944Z,7.11
2024-03-12T20:03:51.243Z,7.1
2024-03-12T20:08:51.440Z,7.13
2024-03-12T20:13:51.199Z,7.13
2024-03-12T20:18:51.698Z,7.14
2024-03-12T20:23:51.630Z,7.13
2024-03-12T20:28:52.190Z,7.13
2024-03-12T20:33:53.115Z,7.13
2024-03-12T20:38:49.210Z,7.14
2024-03-12T20:43:49.839Z,7.13
2024-03-12T20:48:50.018Z,7.11
2024-03-12T20:53:50.663Z,7.1
2024-03-12T20:58:50.912Z,7.13
2024-03-12T21:03:50.872Z,7.08
2024-03-12T21:08:51.583Z,7.07
2024-03-12T21:13:49.965Z,7.05
2024-03-12T21:18:49.976Z,7.04
2024-03-12T21:23:50.528Z,7.02
2024-03-12T21:28:50.734Z,7.02
2024-03-12T21:33:51.383Z,7.04
2024-03-12T21:38:48.991Z,7.05
2024-03-12T21:43:49.252Z,7.04
2024-03-12T21:48:49.202Z,7.03
2024-03-12T21:53:49.812Z,7
2024-03-12T21:58:49.950Z,6.99
2024-03-12T22:03:50.881Z,6.96
2024-03-12T22:08:43.406Z,6.92
2024-03-12T22:13:48.506Z,6.89
2024-03-12T22:18:48.060Z,6.87
2024-03-12T22:23:48.138Z,6.88
2024-03-12T22:28:47.968Z,6.85
2024-03-12T22:33:48.556Z,6.8
2024-03-12T22:38:48.466Z,6.78
2024-03-12T22:43:48.096Z,6.75
2024-03-12T22:48:34.811Z,6.72
2024-03-12T22:53:34.963Z,6.71
2024-03-12T22:58:34.322Z,6.73
2024-03-12T23:03:34.196Z,6.7
2024-03-12T23:08:34.517Z,6.66
2024-03-12T23:13:34.128Z,6.65
2024-03-12T23:18:32.106Z,6.58
2024-03-12T23:23:32.523Z,6.58
2024-03-12T23:28:32.101Z,6.55
2024-03-12T23:33:32.126Z,6.49
2024-03-12T23:38:31.713Z,6.44
2024-03-12T23:43:31.634Z,6.4
2024-03-12T23:48:31.788Z,6.45
2024-03-12T23:53:31.550Z,6.46
2024-03-12T23:58:31.684Z,6.49
